sensor_id;sensor_type;location;lat;lon;timestamp;P1;durP1;ratioP1;P2;durP2;ratioP2
3405;SDS011;10008;48.682;9.016;2023-05-15T00:02:24;4.50;;;2.80;;
3405;SDS011;10008;48.682;9.016;2023-05-15T00:04:50;3.10;;;2.07;;
3405;SDS011;10008;48.682;9.016;2023-05-15T00:07:16;2.90;;;1.60;;
3405;SDS011;10008;48.682;9.016;2023-05-15T00:09:42;3.00;;;1.77;;
3405;SDS011;10008;48.682;9.016;2023-05-15T00:12:08;3.40;;;2.70;;
3405;SDS011;10008;48.682;9.016;2023-05-15T00:14:33;3.10;;;2.20;;
3405;SDS011;10008;48.682;9.016;2023-05-15T00:16:59;2.93;;;1.90;;
3405;SDS011;10008;48.682;9.016;2023-05-15T00:19:25;3.00;;;1.93;;
3405;SDS011;10008;48.682;9.016;2023-05-15T00:21:50;3.00;;;1.90;;
3405;SDS011;10008;48.682;9.016;2023-05-15T00:24:16;3.00;;;2.00;;
3405;SDS011;10008;48.682;9.016;2023-05-15T00:26:42;3.00;;;1.97;;
3405;SDS011;10008;48.682;9.016;2023-05-15T00:29:09;3.10;;;2.20;;
3405;SDS011;10008;48.682;9.016;2023-05-15T00:31:34;3.20;;;2.40;;
3405;SDS011;10008;48.682;9.016;2023-05-15T00:34:00;3.20;;;2.30;;
3405;SDS011;10008;48.682;9.016;2023-05-15T00:36:26;3.30;;;2.60;;
3405;SDS011;10008;48.682;9.016;2023-05-15T00:38:52;4.23;;;3.23;;
3405;SDS011;10008;48.682;9.016;2023-05-15T00:41:18;3.10;;;2.30;;
3405;SDS011;10008;48.682;9.016;2023-05-15T00:43:46;3.13;;;2.30;;
3405;SDS011;10008;48.682;9.016;2023-05-15T00:46:15;3.13;;;2.13;;
3405;SDS011;10008;48.682;9.016;2023-05-15T00:48:41;3.00;;;1.90;;
3405;SDS011;10008;48.682;9.016;2023-05-15T00:51:08;3.17;;;2.20;;
3405;SDS011;10008;48.682;9.016;2023-05-15T00:53:34;3.00;;;1.90;;
3405;SDS011;10008;48.682;9.016;2023-05-15T00:56:00;3.00;;;2.00;;
3405;SDS011;10008;48.682;9.016;2023-05-15T00:58:27;3.20;;;2.30;;
3405;SDS011;10008;48.682;9.016;2023-05-15T01:00:55;3.10;;;2.10;;
3405;SDS011;10008;48.682;9.016;2023-05-15T01:03:21;5.50;;;2.53;;
3405;SDS011;10008;48.682;9.016;2023-05-15T01:05:47;3.00;;;2.00;;
3405;SDS011;10008;48.682;9.016;2023-05-15T01:11:06;3.30;;;2.53;;
3405;SDS011;10008;48.682;9.016;2023-05-15T01:13:33;2.90;;;1.80;;
3405;SDS011;10008;48.682;9.016;2023-05-15T01:15:58;2.90;;;1.90;;
3405;SDS011;10008;48.682;9.016;2023-05-15T01:18:24;2.90;;;1.70;;
3405;SDS011;10008;48.682;9.016;2023-05-15T01:21:09;3.63;;;3.20;;
3405;SDS011;10008;48.682;9.016;2023-05-15T01:32:30;2.90;;;1.80;;
3405;SDS011;10008;48.682;9.016;2023-05-15T01:35:05;3.00;;;2.00;;
3405;SDS011;10008;48.682;9.016;2023-05-15T01:37:47;3.00;;;1.90;;
3405;SDS011;10008;48.682;9.016;2023-05-15T01:40:18;3.00;;;2.03;;
3405;SDS011;10008;48.682;9.016;2023-05-15T01:42:58;2.90;;;1.70;;
3405;SDS011;10008;48.682;9.016;2023-05-15T01:45:30;3.83;;;2.43;;
3405;SDS011;10008;48.682;9.016;2023-05-15T01:47:57;2.90;;;1.73;;
3405;SDS011;10008;48.682;9.016;2023-05-15T01:50:25;3.00;;;1.90;;
3405;SDS011;10008;48.682;9.016;2023-05-15T01:52:55;3.10;;;2.10;;
3405;SDS011;10008;48.682;9.016;2023-05-15T01:55:24;3.00;;;2.00;;
3405;SDS011;10008;48.682;9.016;2023-05-15T01:57:52;3.20;;;2.30;;
3405;SDS011;10008;48.682;9.016;2023-05-15T02:00:19;3.23;;;2.57;;
3405;SDS011;10008;48.682;9.016;2023-05-15T02:02:46;3.20;;;2.40;;
3405;SDS011;10008;48.682;9.016;2023-05-15T02:05:16;3.20;;;2.40;;
3405;SDS011;10008;48.682;9.016;2023-05-15T02:07:42;3.97;;;3.47;;
3405;SDS011;10008;48.682;9.016;2023-05-15T02:10:12;4.23;;;3.37;;
3405;SDS011;10008;48.682;9.016;2023-05-15T02:12:44;3.10;;;2.30;;
3405;SDS011;10008;48.682;9.016;2023-05-15T02:15:10;3.17;;;2.47;;
3405;SDS011;10008;48.682;9.016;2023-05-15T02:17:39;3.17;;;2.50;;
3405;SDS011;10008;48.682;9.016;2023-05-15T02:20:05;3.20;;;2.50;;
3405;SDS011;10008;48.682;9.016;2023-05-15T02:22:32;3.10;;;2.40;;
3405;SDS011;10008;48.682;9.016;2023-05-15T02:24:58;3.30;;;2.70;;
3405;SDS011;10008;48.682;9.016;2023-05-15T02:27:28;3.40;;;2.80;;
3405;SDS011;10008;48.682;9.016;2023-05-15T02:30:13;3.30;;;2.70;;
3405;SDS011;10008;48.682;9.016;2023-05-15T02:38:16;3.40;;;2.90;;
3405;SDS011;10008;48.682;9.016;2023-05-15T02:40:46;3.30;;;2.67;;
3405;SDS011;10008;48.682;9.016;2023-05-15T02:43:13;3.20;;;2.60;;
3405;SDS011;10008;48.682;9.016;2023-05-15T02:45:41;3.40;;;3.00;;
3405;SDS011;10008;48.682;9.016;2023-05-15T02:48:10;3.33;;;2.83;;
3405;SDS011;10008;48.682;9.016;2023-05-15T02:50:37;3.43;;;3.00;;
3405;SDS011;10008;48.682;9.016;2023-05-15T02:53:03;3.50;;;3.10;;
3405;SDS011;10008;48.682;9.016;2023-05-15T02:55:30;3.63;;;3.30;;
3405;SDS011;10008;48.682;9.016;2023-05-15T02:57:56;3.80;;;3.40;;
3405;SDS011;10008;48.682;9.016;2023-05-15T03:00:23;3.50;;;3.17;;
3405;SDS011;10008;48.682;9.016;2023-05-15T03:02:48;3.80;;;3.40;;
3405;SDS011;10008;48.682;9.016;2023-05-15T03:05:14;3.53;;;3.23;;
3405;SDS011;10008;48.682;9.016;2023-05-15T03:07:40;3.50;;;3.20;;
3405;SDS011;10008;48.682;9.016;2023-05-15T03:10:06;3.60;;;3.30;;
3405;SDS011;10008;48.682;9.016;2023-05-15T03:12:32;3.80;;;3.40;;
3405;SDS011;10008;48.682;9.016;2023-05-15T03:14:58;3.60;;;3.30;;
3405;SDS011;10008;48.682;9.016;2023-05-15T03:17:25;3.53;;;3.23;;
3405;SDS011;10008;48.682;9.016;2023-05-15T03:19:51;3.57;;;3.23;;
3405;SDS011;10008;48.682;9.016;2023-05-15T03:22:17;3.73;;;3.40;;
3405;SDS011;10008;48.682;9.016;2023-05-15T03:24:42;4.57;;;4.17;;
3405;SDS011;10008;48.682;9.016;2023-05-15T03:27:08;3.77;;;3.40;;
3405;SDS011;10008;48.682;9.016;2023-05-15T03:29:34;3.50;;;3.03;;
3405;SDS011;10008;48.682;9.016;2023-05-15T03:31:59;3.73;;;3.40;;
3405;SDS011;10008;48.682;9.016;2023-05-15T03:34:25;4.43;;;3.60;;
3405;SDS011;10008;48.682;9.016;2023-05-15T03:36:51;4.40;;;4.00;;
3405;SDS011;10008;48.682;9.016;2023-05-15T03:39:17;3.80;;;3.40;;
3405;SDS011;10008;48.682;9.016;2023-05-15T03:41:42;3.57;;;3.27;;
3405;SDS011;10008;48.682;9.016;2023-05-15T03:44:08;3.90;;;3.50;;
3405;SDS011;10008;48.682;9.016;2023-05-15T03:46:34;3.80;;;3.40;;
3405;SDS011;10008;48.682;9.016;2023-05-15T03:49:01;4.80;;;4.13;;
3405;SDS011;10008;48.682;9.016;2023-05-15T03:51:26;4.27;;;3.87;;
3405;SDS011;10008;48.682;9.016;2023-05-15T03:53:52;4.33;;;3.93;;
3405;SDS011;10008;48.682;9.016;2023-05-15T03:56:21;8.53;;;6.90;;
3405;SDS011;10008;48.682;9.016;2023-05-15T03:58:47;4.60;;;4.20;;
3405;SDS011;10008;48.682;9.016;2023-05-15T04:01:13;4.53;;;4.13;;
3405;SDS011;10008;48.682;9.016;2023-05-15T04:03:38;4.70;;;4.30;;
3405;SDS011;10008;48.682;9.016;2023-05-15T04:06:04;4.40;;;4.00;;
3405;SDS011;10008;48.682;9.016;2023-05-15T04:08:30;4.60;;;4.20;;
3405;SDS011;10008;48.682;9.016;2023-05-15T04:10:55;5.97;;;5.37;;
3405;SDS011;10008;48.682;9.016;2023-05-15T04:13:21;4.80;;;4.40;;
3405;SDS011;10008;48.682;9.016;2023-05-15T04:15:47;4.70;;;4.30;;
3405;SDS011;10008;48.682;9.016;2023-05-15T04:18:13;5.93;;;5.43;;
3405;SDS011;10008;48.682;9.016;2023-05-15T04:20:38;5.20;;;4.80;;
3405;SDS011;10008;48.682;9.016;2023-05-15T04:23:04;4.97;;;4.57;;
3405;SDS011;10008;48.682;9.016;2023-05-15T04:25:30;5.40;;;5.00;;
3405;SDS011;10008;48.682;9.016;2023-05-15T04:27:56;5.83;;;5.33;;
3405;SDS011;10008;48.682;9.016;2023-05-15T04:30:22;5.13;;;4.73;;
3405;SDS011;10008;48.682;9.016;2023-05-15T04:32:48;6.00;;;5.50;;
3405;SDS011;10008;48.682;9.016;2023-05-15T04:35:15;5.80;;;5.30;;
3405;SDS011;10008;48.682;9.016;2023-05-15T04:37:42;5.00;;;4.60;;
3405;SDS011;10008;48.682;9.016;2023-05-15T04:40:09;5.00;;;4.60;;
3405;SDS011;10008;48.682;9.016;2023-05-15T04:42:36;5.43;;;5.03;;
3405;SDS011;10008;48.682;9.016;2023-05-15T04:45:02;5.40;;;5.00;;
3405;SDS011;10008;48.682;9.016;2023-05-15T04:47:28;5.40;;;5.00;;
3405;SDS011;10008;48.682;9.016;2023-05-15T04:49:53;5.87;;;5.37;;
3405;SDS011;10008;48.682;9.016;2023-05-15T04:52:19;6.17;;;5.63;;
3405;SDS011;10008;48.682;9.016;2023-05-15T04:54:45;5.87;;;5.37;;
3405;SDS011;10008;48.682;9.016;2023-05-15T04:57:12;5.40;;;5.00;;
3405;SDS011;10008;48.682;9.016;2023-05-15T04:59:37;5.90;;;5.40;;
3405;SDS011;10008;48.682;9.016;2023-05-15T05:02:03;5.10;;;4.70;;
3405;SDS011;10008;48.682;9.016;2023-05-15T05:04:29;5.37;;;4.97;;
3405;SDS011;10008;48.682;9.016;2023-05-15T05:06:55;5.43;;;5.03;;
3405;SDS011;10008;48.682;9.016;2023-05-15T05:09:20;5.30;;;4.90;;
3405;SDS011;10008;48.682;9.016;2023-05-15T05:11:46;5.57;;;5.00;;
3405;SDS011;10008;48.682;9.016;2023-05-15T05:14:13;7.30;;;6.60;;
3405;SDS011;10008;48.682;9.016;2023-05-15T05:16:39;5.60;;;4.93;;
3405;SDS011;10008;48.682;9.016;2023-05-15T05:19:06;5.30;;;4.90;;
3405;SDS011;10008;48.682;9.016;2023-05-15T05:21:32;5.70;;;5.30;;
3405;SDS011;10008;48.682;9.016;2023-05-15T05:23:58;7.40;;;6.80;;
3405;SDS011;10008;48.682;9.016;2023-05-15T05:26:24;6.47;;;5.97;;
3405;SDS011;10008;48.682;9.016;2023-05-15T05:28:51;9.23;;;5.77;;
3405;SDS011;10008;48.682;9.016;2023-05-15T05:31:17;6.70;;;6.10;;
3405;SDS011;10008;48.682;9.016;2023-05-15T05:33:43;7.00;;;6.40;;
3405;SDS011;10008;48.682;9.016;2023-05-15T05:36:09;5.90;;;5.40;;
3405;SDS011;10008;48.682;9.016;2023-05-15T05:38:35;6.97;;;6.47;;
3405;SDS011;10008;48.682;9.016;2023-05-15T05:41:01;6.93;;;6.33;;
3405;SDS011;10008;48.682;9.016;2023-05-15T05:43:27;6.93;;;6.43;;
3405;SDS011;10008;48.682;9.016;2023-05-15T05:45:54;9.33;;;7.97;;
3405;SDS011;10008;48.682;9.016;2023-05-15T05:48:20;5.80;;;5.30;;
3405;SDS011;10008;48.682;9.016;2023-05-15T05:50:46;5.50;;;5.10;;
3405;SDS011;10008;48.682;9.016;2023-05-15T05:53:11;6.00;;;5.50;;
3405;SDS011;10008;48.682;9.016;2023-05-15T05:55:37;6.10;;;5.60;;
3405;SDS011;10008;48.682;9.016;2023-05-15T05:58:03;9.17;;;7.93;;
3405;SDS011;10008;48.682;9.016;2023-05-15T06:00:29;6.40;;;5.90;;
3405;SDS011;10008;48.682;9.016;2023-05-15T06:02:58;6.37;;;5.87;;
3405;SDS011;10008;48.682;9.016;2023-05-15T06:05:27;5.90;;;5.40;;
3405;SDS011;10008;48.682;9.016;2023-05-15T06:07:53;7.63;;;6.90;;
3405;SDS011;10008;48.682;9.016;2023-05-15T06:10:19;6.27;;;5.77;;
3405;SDS011;10008;48.682;9.016;2023-05-15T06:12:46;6.53;;;6.03;;
3405;SDS011;10008;48.682;9.016;2023-05-15T06:15:12;11.63;;;8.53;;
3405;SDS011;10008;48.682;9.016;2023-05-15T06:17:38;9.63;;;8.70;;
3405;SDS011;10008;48.682;9.016;2023-05-15T06:20:04;7.80;;;7.20;;
3405;SDS011;10008;48.682;9.016;2023-05-15T06:22:36;8.00;;;7.40;;
3405;SDS011;10008;48.682;9.016;2023-05-15T06:25:03;8.17;;;7.47;;
3405;SDS011;10008;48.682;9.016;2023-05-15T06:27:30;8.23;;;7.53;;
3405;SDS011;10008;48.682;9.016;2023-05-15T06:29:56;7.90;;;7.30;;
3405;SDS011;10008;48.682;9.016;2023-05-15T06:32:22;8.10;;;7.50;;
3405;SDS011;10008;48.682;9.016;2023-05-15T06:34:48;8.23;;;7.63;;
3405;SDS011;10008;48.682;9.016;2023-05-15T06:37:14;8.73;;;8.10;;
3405;SDS011;10008;48.682;9.016;2023-05-15T06:39:40;9.33;;;8.63;;
3405;SDS011;10008;48.682;9.016;2023-05-15T06:42:06;10.53;;;9.53;;
3405;SDS011;10008;48.682;9.016;2023-05-15T06:44:33;9.90;;;9.10;;
3405;SDS011;10008;48.682;9.016;2023-05-15T06:46:59;9.87;;;9.17;;
3405;SDS011;10008;48.682;9.016;2023-05-15T06:49:26;9.47;;;8.77;;
3405;SDS011;10008;48.682;9.016;2023-05-15T06:51:51;10.17;;;9.40;;
3405;SDS011;10008;48.682;9.016;2023-05-15T06:54:19;10.90;;;10.00;;
3405;SDS011;10008;48.682;9.016;2023-05-15T06:56:45;9.83;;;9.13;;
3405;SDS011;10008;48.682;9.016;2023-05-15T06:59:11;11.20;;;10.30;;
3405;SDS011;10008;48.682;9.016;2023-05-15T07:01:37;10.47;;;9.67;;
3405;SDS011;10008;48.682;9.016;2023-05-15T07:04:03;10.37;;;9.57;;
3405;SDS011;10008;48.682;9.016;2023-05-15T07:06:29;11.30;;;10.50;;
3405;SDS011;10008;48.682;9.016;2023-05-15T07:08:56;11.83;;;10.80;;
3405;SDS011;10008;48.682;9.016;2023-05-15T07:11:23;10.90;;;10.00;;
3405;SDS011;10008;48.682;9.016;2023-05-15T07:13:50;11.53;;;10.63;;
3405;SDS011;10008;48.682;9.016;2023-05-15T07:16:16;14.23;;;12.90;;
3405;SDS011;10008;48.682;9.016;2023-05-15T07:18:42;10.13;;;9.43;;
3405;SDS011;10008;48.682;9.016;2023-05-15T07:21:08;10.00;;;9.30;;
3405;SDS011;10008;48.682;9.016;2023-05-15T07:23:33;15.00;;;13.60;;
3405;SDS011;10008;48.682;9.016;2023-05-15T07:25:59;10.00;;;9.30;;
3405;SDS011;10008;48.682;9.016;2023-05-15T07:28:25;10.00;;;9.30;;
3405;SDS011;10008;48.682;9.016;2023-05-15T07:30:51;10.70;;;9.90;;
3405;SDS011;10008;48.682;9.016;2023-05-15T07:33:17;10.57;;;9.77;;
3405;SDS011;10008;48.682;9.016;2023-05-15T07:35:42;10.57;;;9.77;;
3405;SDS011;10008;48.682;9.016;2023-05-15T07:38:08;10.30;;;9.50;;
3405;SDS011;10008;48.682;9.016;2023-05-15T07:40:34;10.50;;;9.70;;
3405;SDS011;10008;48.682;9.016;2023-05-15T07:43:00;10.53;;;9.73;;
3405;SDS011;10008;48.682;9.016;2023-05-15T07:45:26;10.33;;;9.53;;
3405;SDS011;10008;48.682;9.016;2023-05-15T07:47:52;11.27;;;10.37;;
3405;SDS011;10008;48.682;9.016;2023-05-15T07:50:18;10.70;;;9.90;;
3405;SDS011;10008;48.682;9.016;2023-05-15T07:52:44;12.40;;;11.50;;
3405;SDS011;10008;48.682;9.016;2023-05-15T07:55:10;10.70;;;9.90;;
3405;SDS011;10008;48.682;9.016;2023-05-15T07:57:36;11.67;;;10.67;;
3405;SDS011;10008;48.682;9.016;2023-05-15T08:00:05;10.97;;;10.17;;
3405;SDS011;10008;48.682;9.016;2023-05-15T08:02:36;10.70;;;9.90;;
3405;SDS011;10008;48.682;9.016;2023-05-15T08:05:03;11.47;;;10.57;;
3405;SDS011;10008;48.682;9.016;2023-05-15T08:07:32;11.20;;;10.40;;
3405;SDS011;10008;48.682;9.016;2023-05-15T08:09:58;10.80;;;10.00;;
3405;SDS011;10008;48.682;9.016;2023-05-15T08:12:24;10.70;;;9.90;;
3405;SDS011;10008;48.682;9.016;2023-05-15T08:14:51;10.77;;;9.97;;
3405;SDS011;10008;48.682;9.016;2023-05-15T08:17:19;10.50;;;9.70;;
3405;SDS011;10008;48.682;9.016;2023-05-15T08:19:46;10.50;;;9.70;;
3405;SDS011;10008;48.682;9.016;2023-05-15T08:22:12;10.60;;;9.80;;
3405;SDS011;10008;48.682;9.016;2023-05-15T08:24:38;10.83;;;10.03;;
3405;SDS011;10008;48.682;9.016;2023-05-15T08:27:05;11.23;;;10.43;;
3405;SDS011;10008;48.682;9.016;2023-05-15T08:29:32;10.57;;;9.77;;
3405;SDS011;10008;48.682;9.016;2023-05-15T08:32:01;12.27;;;11.20;;
3405;SDS011;10008;48.682;9.016;2023-05-15T08:34:27;12.00;;;11.00;;
3405;SDS011;10008;48.682;9.016;2023-05-15T08:36:53;11.40;;;10.50;;
3405;SDS011;10008;48.682;9.016;2023-05-15T08:39:20;10.40;;;9.60;;
3405;SDS011;10008;48.682;9.016;2023-05-15T08:41:49;11.37;;;10.57;;
3405;SDS011;10008;48.682;9.016;2023-05-15T08:44:31;10.57;;;9.77;;
3405;SDS011;10008;48.682;9.016;2023-05-15T08:46:57;10.30;;;9.50;;
3405;SDS011;10008;48.682;9.016;2023-05-15T08:52:11;10.50;;;9.70;;
3405;SDS011;10008;48.682;9.016;2023-05-15T08:54:37;10.50;;;9.70;;
3405;SDS011;10008;48.682;9.016;2023-05-15T08:57:04;10.20;;;9.40;;
3405;SDS011;10008;48.682;9.016;2023-05-15T08:59:31;10.50;;;9.70;;
3405;SDS011;10008;48.682;9.016;2023-05-15T09:01:57;10.40;;;9.60;;
3405;SDS011;10008;48.682;9.016;2023-05-15T09:04:24;11.00;;;10.20;;
3405;SDS011;10008;48.682;9.016;2023-05-15T09:06:50;10.13;;;9.37;;
3405;SDS011;10008;48.682;9.016;2023-05-15T09:09:17;10.93;;;10.13;;
3405;SDS011;10008;48.682;9.016;2023-05-15T09:11:43;10.33;;;9.53;;
3405;SDS011;10008;48.682;9.016;2023-05-15T09:14:12;11.67;;;10.77;;
3405;SDS011;10008;48.682;9.016;2023-05-15T09:16:38;11.13;;;10.23;;
3405;SDS011;10008;48.682;9.016;2023-05-15T09:19:04;10.57;;;9.77;;
3405;SDS011;10008;48.682;9.016;2023-05-15T09:21:30;10.70;;;9.90;;
3405;SDS011;10008;48.682;9.016;2023-05-15T09:26:45;13.00;;;11.73;;
3405;SDS011;10008;48.682;9.016;2023-05-15T09:29:15;11.77;;;10.83;;
3405;SDS011;10008;48.682;9.016;2023-05-15T09:31:42;14.87;;;13.47;;
3405;SDS011;10008;48.682;9.016;2023-05-15T09:34:09;31.17;;;15.10;;
3405;SDS011;10008;48.682;9.016;2023-05-15T09:36:40;12.23;;;11.23;;
3405;SDS011;10008;48.682;9.016;2023-05-15T09:39:08;9.67;;;8.93;;
3405;SDS011;10008;48.682;9.016;2023-05-15T09:41:33;8.70;;;8.03;;
3405;SDS011;10008;48.682;9.016;2023-05-15T09:43:59;4.33;;;3.93;;
3405;SDS011;10008;48.682;9.016;2023-05-15T09:46:25;4.17;;;2.70;;
3405;SDS011;10008;48.682;9.016;2023-05-15T09:48:54;2.90;;;1.17;;
3405;SDS011;10008;48.682;9.016;2023-05-15T09:51:20;4.70;;;2.50;;
3405;SDS011;10008;48.682;9.016;2023-05-15T09:53:52;2.90;;;1.20;;
3405;SDS011;10008;48.682;9.016;2023-05-15T09:56:18;7.40;;;3.60;;
3405;SDS011;10008;48.682;9.016;2023-05-15T09:58:56;4.90;;;1.77;;
3405;SDS011;10008;48.682;9.016;2023-05-15T10:01:23;3.43;;;1.07;;
3405;SDS011;10008;48.682;9.016;2023-05-15T10:04:03;2.60;;;0.70;;
3405;SDS011;10008;48.682;9.016;2023-05-15T10:06:33;3.00;;;1.47;;
3405;SDS011;10008;48.682;9.016;2023-05-15T10:09:00;4.57;;;4.17;;
3405;SDS011;10008;48.682;9.016;2023-05-15T10:11:27;5.00;;;4.60;;
3405;SDS011;10008;48.682;9.016;2023-05-15T10:13:54;6.03;;;5.53;;
3405;SDS011;10008;48.682;9.016;2023-05-15T10:16:22;7.73;;;7.00;;
3405;SDS011;10008;48.682;9.016;2023-05-15T10:18:50;7.53;;;6.70;;
3405;SDS011;10008;48.682;9.016;2023-05-15T10:21:16;6.10;;;5.60;;
3405;SDS011;10008;48.682;9.016;2023-05-15T10:23:44;9.67;;;8.97;;
3405;SDS011;10008;48.682;9.016;2023-05-15T10:26:22;9.70;;;9.00;;
3405;SDS011;10008;48.682;9.016;2023-05-15T10:28:53;9.93;;;9.23;;
3405;SDS011;10008;48.682;9.016;2023-05-15T10:31:20;10.30;;;9.60;;
3405;SDS011;10008;48.682;9.016;2023-05-15T10:33:47;10.30;;;9.50;;
3405;SDS011;10008;48.682;9.016;2023-05-15T10:36:15;10.30;;;9.50;;
3405;SDS011;10008;48.682;9.016;2023-05-15T10:38:42;10.87;;;10.07;;
3405;SDS011;10008;48.682;9.016;2023-05-15T10:41:10;10.80;;;10.00;;
3405;SDS011;10008;48.682;9.016;2023-05-15T10:43:38;14.07;;;12.87;;
3405;SDS011;10008;48.682;9.016;2023-05-15T10:46:05;10.83;;;10.03;;
3405;SDS011;10008;48.682;9.016;2023-05-15T10:48:32;11.20;;;10.40;;
3405;SDS011;10008;48.682;9.016;2023-05-15T10:50:59;11.10;;;10.30;;
3405;SDS011;10008;48.682;9.016;2023-05-15T10:53:25;11.10;;;10.30;;
3405;SDS011;10008;48.682;9.016;2023-05-15T10:55:51;11.93;;;11.00;;
3405;SDS011;10008;48.682;9.016;2023-05-15T10:58:21;11.10;;;10.30;;
3405;SDS011;10008;48.682;9.016;2023-05-15T11:00:47;11.33;;;10.43;;
3405;SDS011;10008;48.682;9.016;2023-05-15T11:03:13;10.77;;;9.97;;
3405;SDS011;10008;48.682;9.016;2023-05-15T11:08:35;12.83;;;11.83;;
3405;SDS011;10008;48.682;9.016;2023-05-15T11:11:02;11.40;;;10.50;;
3405;SDS011;10008;48.682;9.016;2023-05-15T11:13:55;10.90;;;10.10;;
3405;SDS011;10008;48.682;9.016;2023-05-15T11:19:24;11.50;;;10.60;;
3405;SDS011;10008;48.682;9.016;2023-05-15T11:25:08;11.00;;;10.20;;
3405;SDS011;10008;48.682;9.016;2023-05-15T11:30:10;11.07;;;10.27;;
3405;SDS011;10008;48.682;9.016;2023-05-15T11:32:39;12.13;;;11.17;;
3405;SDS011;10008;48.682;9.016;2023-05-15T11:35:17;12.43;;;11.50;;
3405;SDS011;10008;48.682;9.016;2023-05-15T11:37:54;10.87;;;9.97;;
3405;SDS011;10008;48.682;9.016;2023-05-15T11:40:29;11.03;;;10.23;;
3405;SDS011;10008;48.682;9.016;2023-05-15T11:42:57;12.20;;;11.30;;
3405;SDS011;10008;48.682;9.016;2023-05-15T11:45:23;11.27;;;10.37;;
3405;SDS011;10008;48.682;9.016;2023-05-15T11:47:49;11.07;;;10.27;;
3405;SDS011;10008;48.682;9.016;2023-05-15T11:50:15;11.37;;;10.47;;
3405;SDS011;10008;48.682;9.016;2023-05-15T11:52:41;10.90;;;10.10;;
3405;SDS011;10008;48.682;9.016;2023-05-15T11:55:07;11.30;;;10.50;;
3405;SDS011;10008;48.682;9.016;2023-05-15T11:57:33;11.00;;;10.20;;
3405;SDS011;10008;48.682;9.016;2023-05-15T12:00:01;11.67;;;10.80;;
3405;SDS011;10008;48.682;9.016;2023-05-15T12:02:30;11.27;;;10.47;;
3405;SDS011;10008;48.682;9.016;2023-05-15T12:04:56;11.13;;;10.33;;
3405;SDS011;10008;48.682;9.016;2023-05-15T12:07:21;11.23;;;10.43;;
3405;SDS011;10008;48.682;9.016;2023-05-15T12:09:50;11.00;;;10.20;;
3405;SDS011;10008;48.682;9.016;2023-05-15T12:12:16;10.73;;;9.93;;
3405;SDS011;10008;48.682;9.016;2023-05-15T12:14:42;10.80;;;10.00;;
3405;SDS011;10008;48.682;9.016;2023-05-15T12:17:08;12.03;;;11.13;;
3405;SDS011;10008;48.682;9.016;2023-05-15T12:19:34;10.80;;;10.00;;
3405;SDS011;10008;48.682;9.016;2023-05-15T12:22:03;11.97;;;10.97;;
3405;SDS011;10008;48.682;9.016;2023-05-15T12:24:30;11.37;;;10.47;;
3405;SDS011;10008;48.682;9.016;2023-05-15T12:26:56;11.37;;;10.47;;
3405;SDS011;10008;48.682;9.016;2023-05-15T12:29:22;11.10;;;10.30;;
3405;SDS011;10008;48.682;9.016;2023-05-15T12:31:48;12.40;;;11.40;;
3405;SDS011;10008;48.682;9.016;2023-05-15T12:34:18;11.70;;;10.80;;
3405;SDS011;10008;48.682;9.016;2023-05-15T12:36:44;13.10;;;12.00;;
3405;SDS011;10008;48.682;9.016;2023-05-15T12:39:10;11.57;;;10.67;;
3405;SDS011;10008;48.682;9.016;2023-05-15T12:41:36;10.90;;;10.10;;
3405;SDS011;10008;48.682;9.016;2023-05-15T12:44:03;12.10;;;11.20;;
3405;SDS011;10008;48.682;9.016;2023-05-15T12:46:30;11.70;;;10.80;;
3405;SDS011;10008;48.682;9.016;2023-05-15T12:48:59;12.33;;;11.33;;
3405;SDS011;10008;48.682;9.016;2023-05-15T12:51:25;12.50;;;11.50;;
3405;SDS011;10008;48.682;9.016;2023-05-15T12:53:54;13.53;;;12.43;;
3405;SDS011;10008;48.682;9.016;2023-05-15T12:56:22;14.40;;;13.10;;
3405;SDS011;10008;48.682;9.016;2023-05-15T12:58:48;14.20;;;13.10;;
3405;SDS011;10008;48.682;9.016;2023-05-15T13:01:14;12.60;;;11.60;;
3405;SDS011;10008;48.682;9.016;2023-05-15T13:03:41;13.00;;;11.90;;
3405;SDS011;10008;48.682;9.016;2023-05-15T13:06:10;15.93;;;14.43;;
3405;SDS011;10008;48.682;9.016;2023-05-15T13:08:40;14.20;;;13.00;;
3405;SDS011;10008;48.682;9.016;2023-05-15T13:11:09;14.23;;;13.03;;
3405;SDS011;10008;48.682;9.016;2023-05-15T13:13:44;12.20;;;11.20;;
3405;SDS011;10008;48.682;9.016;2023-05-15T13:16:16;12.40;;;11.40;;
3405;SDS011;10008;48.682;9.016;2023-05-15T13:18:43;14.17;;;12.97;;
3405;SDS011;10008;48.682;9.016;2023-05-15T13:21:09;11.80;;;10.90;;
3405;SDS011;10008;48.682;9.016;2023-05-15T13:23:35;11.40;;;10.50;;
3405;SDS011;10008;48.682;9.016;2023-05-15T13:26:01;12.13;;;11.17;;
3405;SDS011;10008;48.682;9.016;2023-05-15T13:28:26;13.17;;;12.07;;
3405;SDS011;10008;48.682;9.016;2023-05-15T13:30:52;14.47;;;13.20;;
3405;SDS011;10008;48.682;9.016;2023-05-15T13:33:18;14.50;;;13.27;;
3405;SDS011;10008;48.682;9.016;2023-05-15T13:35:43;14.57;;;13.37;;
3405;SDS011;10008;48.682;9.016;2023-05-15T13:38:09;12.30;;;11.20;;
3405;SDS011;10008;48.682;9.016;2023-05-15T13:40:36;13.07;;;11.97;;
3405;SDS011;10008;48.682;9.016;2023-05-15T13:43:02;11.60;;;10.70;;
3405;SDS011;10008;48.682;9.016;2023-05-15T13:45:28;11.80;;;10.90;;
3405;SDS011;10008;48.682;9.016;2023-05-15T13:47:54;11.00;;;10.10;;
3405;SDS011;10008;48.682;9.016;2023-05-15T13:50:20;11.60;;;10.70;;
3405;SDS011;10008;48.682;9.016;2023-05-15T13:52:46;13.30;;;12.10;;
3405;SDS011;10008;48.682;9.016;2023-05-15T13:55:12;12.50;;;11.40;;
3405;SDS011;10008;48.682;9.016;2023-05-15T13:57:38;13.47;;;12.27;;
3405;SDS011;10008;48.682;9.016;2023-05-15T14:00:05;13.00;;;11.63;;
3405;SDS011;10008;48.682;9.016;2023-05-15T14:02:36;10.97;;;10.07;;
3405;SDS011;10008;48.682;9.016;2023-05-15T14:05:07;10.63;;;9.73;;
3405;SDS011;10008;48.682;9.016;2023-05-15T14:07:35;12.17;;;11.07;;
3405;SDS011;10008;48.682;9.016;2023-05-15T14:10:01;12.70;;;11.50;;
3405;SDS011;10008;48.682;9.016;2023-05-15T14:12:26;11.90;;;10.90;;
3405;SDS011;10008;48.682;9.016;2023-05-15T14:14:52;11.00;;;10.17;;
3405;SDS011;10008;48.682;9.016;2023-05-15T14:17:18;12.90;;;11.80;;
3405;SDS011;10008;48.682;9.016;2023-05-15T14:19:44;11.83;;;10.90;;
3405;SDS011;10008;48.682;9.016;2023-05-15T14:22:09;13.43;;;12.23;;
3405;SDS011;10008;48.682;9.016;2023-05-15T14:24:35;12.23;;;11.23;;
3405;SDS011;10008;48.682;9.016;2023-05-15T14:27:01;11.20;;;10.30;;
3405;SDS011;10008;48.682;9.016;2023-05-15T14:29:27;10.40;;;9.60;;
3405;SDS011;10008;48.682;9.016;2023-05-15T14:31:53;10.50;;;9.70;;
3405;SDS011;10008;48.682;9.016;2023-05-15T14:34:19;10.93;;;10.03;;
3405;SDS011;10008;48.682;9.016;2023-05-15T14:36:46;12.67;;;11.67;;
3405;SDS011;10008;48.682;9.016;2023-05-15T14:39:13;11.40;;;10.53;;
3405;SDS011;10008;48.682;9.016;2023-05-15T14:41:39;11.57;;;10.67;;
3405;SDS011;10008;48.682;9.016;2023-05-15T14:44:05;10.50;;;9.70;;
3405;SDS011;10008;48.682;9.016;2023-05-15T14:46:31;10.83;;;9.97;;
3405;SDS011;10008;48.682;9.016;2023-05-15T14:48:57;11.60;;;10.70;;
3405;SDS011;10008;48.682;9.016;2023-05-15T14:51:22;10.37;;;9.57;;
3405;SDS011;10008;48.682;9.016;2023-05-15T14:53:48;10.60;;;9.80;;
3405;SDS011;10008;48.682;9.016;2023-05-15T14:56:14;12.60;;;11.40;;
3405;SDS011;10008;48.682;9.016;2023-05-15T14:58:40;10.93;;;10.13;;
3405;SDS011;10008;48.682;9.016;2023-05-15T15:01:05;10.67;;;9.87;;
3405;SDS011;10008;48.682;9.016;2023-05-15T15:03:31;10.47;;;9.67;;
3405;SDS011;10008;48.682;9.016;2023-05-15T15:05:57;11.33;;;10.43;;
3405;SDS011;10008;48.682;9.016;2023-05-15T15:08:23;10.73;;;9.93;;
3405;SDS011;10008;48.682;9.016;2023-05-15T15:10:49;10.47;;;9.67;;
3405;SDS011;10008;48.682;9.016;2023-05-15T15:13:15;11.70;;;10.70;;
3405;SDS011;10008;48.682;9.016;2023-05-15T15:15:41;10.50;;;9.70;;
3405;SDS011;10008;48.682;9.016;2023-05-15T15:18:07;10.43;;;9.63;;
3405;SDS011;10008;48.682;9.016;2023-05-15T15:20:33;10.83;;;9.93;;
3405;SDS011;10008;48.682;9.016;2023-05-15T15:22:59;10.50;;;9.70;;
3405;SDS011;10008;48.682;9.016;2023-05-15T15:25:24;11.53;;;10.53;;